Home > Products > Valid Products > MTR

000
SAUS44 KMRX 280613 COR
MTRGDP
METAR KGDP 280551Z AUTO 25017KT 10SM CLR 11/M07 A3034 RMK AO2 SLP230
T01061067 10128 20094 58003





000
SAUS44 KMRX 261813 COR
MTRGDP
METAR KGDP 261751Z AUTO 24023KT 10SM CLR 12/M11 A3034 RMK AO2 PK WND
24029/1724 SLP251 T01221111 10122 20011 50006





000
SAUS44 KMRX 261213 COR
MTRGDP
METAR KGDP 261151Z AUTO 23025KT 10SM CLR 02/M14 A3025 RMK AO2 PK WND
24031/1119 SLP238 T00171139 10044 20017 53003





000
SAUS44 KMRX 260713 COR
MTRGDP
METAR KGDP 260651Z AUTO 25028KT 10SM CLR 03/M14 A3026 RMK AO2 PK WND
25029/0651 SLP232 T00331139 401001017





000
SAUS44 KMRX 260613 COR
MTRGDP
METAR KGDP 260551Z AUTO 24024KT 10SM CLR 03/M13 A3027 RMK AO2 PK WND
25031/0514 SLP240 T00281128 10061 20022 51012





000
SAUS44 KMRX 251813 COR
MTRGDP
METAR KGDP 251751Z AUTO 25022G28KT 10SM CLR 07/M11 A3038 RMK AO2 PK
WND 24028/1748 SLP272 T00721106 10072 21017 58010





000
SAUS44 KMRX 251713
MTRGDP
METAR KGDP 251651Z AUTO 24017KT 10SM CLR 04/M10 A3042 RMK AO2 SLP294
T00441100





    US Dept of Commerce
    National Oceanic and Atmospheric Administration
    National Weather Service
    1325 East West Highway
    Silver Spring, MD 20910
    Page Author: NWS Internet Services Team
Disclaimer
Information Quality
Credits
Glossary
Privacy Policy
Freedom of Information Act (FOIA)
About Us
Career Opportunities